Time;durP1;ratioP1;P1;durP2;ratioP2;P2;SDS_P1;SDS_P2;PMS_P1;PMS_P2;Temp;Humidity;BMP_temperature;BMP_pressure;BME280_temperature;BME280_humidity;BME280_pressure;Samples;Min_cycle;Max_cycle;Signal;HPM_P1;HPM_P2
2023/11/16 00:00:12;;;;;;;0.00;0.00;;;;;;;7.06;92.84;100424.94;4934939;28;20034;-74
2023/11/16 00:02:38;;;;;;;0.00;0.00;;;;;;;7.08;93.00;100423.66;4963352;28;20018;-74
2023/11/16 00:05:04;;;;;;;0.00;0.00;;;;;;;7.05;93.17;100429.53;4977532;28;20026;-73
2023/11/16 00:07:33;;;;;;;0.00;0.00;;;;;;;7.06;92.81;100425.75;4947179;28;20034;-75
2023/11/16 00:09:58;;;;;;;0.00;0.00;;;;;;;6.85;92.99;100407.41;4959015;28;20027;-74
2023/11/16 00:12:24;;;;;;;0.00;0.00;;;;;;;6.79;93.17;100406.47;4947494;28;20038;-74
2023/11/16 00:14:49;;;;;;;0.00;0.00;;;;;;;6.94;93.61;100423.09;4939282;28;20355;-74
2023/11/16 00:17:15;;;;;;;0.10;0.10;;;;;;;6.81;93.24;100404.34;4955873;28;20030;-75
2023/11/16 00:19:42;;;;;;;0.00;0.00;;;;;;;6.86;93.49;100404.44;4960462;28;20477;-74
2023/11/16 00:22:09;;;;;;;0.00;0.00;;;;;;;6.77;93.60;100384.16;4979712;28;20023;-73
2023/11/16 00:24:35;;;;;;;0.00;0.00;;;;;;;6.43;93.31;100341.38;4961255;28;20023;-75
2023/11/16 00:27:01;;;;;;;0.00;0.00;;;;;;;6.75;93.80;100397.97;4959645;28;20065;-76
2023/11/16 00:29:26;;;;;;;0.00;0.00;;;;;;;6.70;93.57;100400.63;4980187;28;20029;-74
2023/11/16 00:31:59;;;;;;;0.00;0.00;;;;;;;6.61;93.84;100396.59;4960406;28;20038;-74
2023/11/16 00:34:24;;;;;;;0.00;0.00;;;;;;;6.54;94.66;100385.03;4960716;28;20602;-74
2023/11/16 00:36:49;;;;;;;0.00;0.00;;;;;;;6.59;95.25;100401.47;4936183;28;20124;-75
2023/11/16 00:39:15;;;;;;;0.00;0.00;;;;;;;6.31;94.33;100375.91;4935291;28;20128;-75
2023/11/16 00:41:40;;;;;;;0.00;0.00;;;;;;;6.46;94.78;100399.84;4980972;28;20473;-75
2023/11/16 00:44:06;;;;;;;0.00;0.00;;;;;;;6.33;95.14;100362.88;4982811;28;20036;-76
2023/11/16 00:46:35;;;;;;;0.00;0.00;;;;;;;6.35;95.76;100365.38;4970226;28;20479;-75
2023/11/16 00:49:01;;;;;;;0.00;0.00;;;;;;;6.27;96.08;100369.28;4959504;28;20041;-75
2023/11/16 00:51:27;;;;;;;0.00;0.00;;;;;;;6.00;96.04;100337.22;4976731;28;20030;-75
2023/11/16 00:53:52;;;;;;;0.00;0.00;;;;;;;5.93;95.93;100331.06;4954014;28;20126;-75
2023/11/16 00:56:18;;;;;;;0.00;0.00;;;;;;;5.89;96.75;100340.72;4940661;28;20480;-76
2023/11/16 00:58:44;;;;;;;0.00;0.00;;;;;;;5.90;96.29;100354.06;4951402;28;20038;-75
2023/11/16 01:01:12;;;;;;;0.00;0.00;;;;;;;5.86;96.55;100346.63;4971571;28;20035;-75
2023/11/16 01:03:41;;;;;;;0.00;0.00;;;;;;;5.60;96.57;100311.59;4983800;28;20628;-75
2023/11/16 01:06:08;;;;;;;0.00;0.00;;;;;;;5.74;97.35;100343.94;4955308;28;20056;-75
2023/11/16 01:08:37;;;;;;;0.00;0.00;;;;;;;5.53;97.38;100315.47;4982484;28;20094;-76
2023/11/16 01:11:09;;;;;;;0.00;0.00;;;;;;;5.33;97.30;100278.69;4937254;28;20108;-77
2023/11/16 01:13:41;;;;;;;0.00;0.00;;;;;;;5.51;97.46;100296.72;4938224;28;20440;-76
2023/11/16 01:16:15;;;;;;;0.00;0.00;;;;;;;5.51;97.92;100285.06;4948211;28;20517;-76
2023/11/16 01:18:50;;;;;;;0.00;0.00;;;;;;;5.51;97.88;100276.94;4943590;28;20030;-75
2023/11/16 01:21:19;;;;;;;0.00;0.00;;;;;;;5.62;97.01;100281.50;4956246;28;20516;-76
2023/11/16 01:23:47;;;;;;;0.00;0.00;;;;;;;5.77;97.73;100289.19;4987689;28;20027;-76
2023/11/16 01:26:17;;;;;;;0.00;0.00;;;;;;;5.70;97.70;100259.44;4963997;28;21572;-75
2023/11/16 01:28:47;;;;;;;0.00;0.00;;;;;;;6.00;97.68;100295.66;4938998;28;20085;-75
2023/11/16 01:31:19;;;;;;;0.00;0.00;;;;;;;6.02;97.07;100280.78;4983296;28;20030;-75
2023/11/16 01:33:45;;;;;;;0.00;0.00;;;;;;;6.09;96.79;100276.06;4966559;28;20029;-75
2023/11/16 01:36:10;;;;;;;0.00;0.00;;;;;;;6.19;96.23;100282.75;4961330;28;20121;-74
2023/11/16 01:38:39;;;;;;;0.00;0.00;;;;;;;6.10;96.90;100261.44;4980566;28;20895;-74
2023/11/16 01:41:08;;;;;;;0.00;0.00;;;;;;;6.08;96.31;100252.69;4971895;28;20485;-75
2023/11/16 01:43:35;;;;;;;0.00;0.00;;;;;;;6.33;96.20;100277.88;4969886;28;20035;-75
2023/11/16 01:46:07;;;;;;;0.10;0.10;;;;;;;6.28;96.28;100278.59;4982988;28;20030;-74
2023/11/16 01:48:35;;;;;;;0.00;0.00;;;;;;;6.37;96.25;100277.16;4988996;28;20081;-76
2023/11/16 01:51:04;;;;;;;0.00;0.00;;;;;;;6.39;96.15;100264.13;4978498;28;20019;-74
2023/11/16 01:53:40;;;;;;;0.00;0.00;;;;;;;6.37;95.76;100269.00;4953903;28;20050;-74
2023/11/16 01:56:08;;;;;;;0.00;0.00;;;;;;;6.34;95.22;100249.63;4969191;28;20037;-74
2023/11/16 01:58:34;;;;;;;0.00;0.00;;;;;;;6.36;95.48;100253.75;4973309;28;20081;-75
2023/11/16 02:01:01;;;;;;;0.10;0.10;;;;;;;6.39;95.83;100252.47;4957945;28;20480;-75
2023/11/16 02:03:28;;;;;;;0.00;0.00;;;;;;;6.46;95.91;100259.38;4986595;28;20392;-74
2023/11/16 02:05:55;;;;;;;0.00;0.00;;;;;;;6.38;95.51;100223.63;4968255;28;20084;-74
2023/11/16 02:08:21;;;;;;;0.00;0.00;;;;;;;6.26;95.76;100197.38;4964023;28;20031;-74
2023/11/16 02:10:47;;;;;;;0.10;0.10;;;;;;;6.46;95.52;100237.66;4970150;28;20078;-76
2023/11/16 02:13:17;;;;;;;0.00;0.00;;;;;;;6.45;95.39;100225.16;4957920;28;20045;-74
2023/11/16 02:15:44;;;;;;;0.00;0.00;;;;;;;6.53;95.20;100226.66;4979449;28;20439;-73
2023/11/16 02:18:16;;;;;;;0.00;0.00;;;;;;;6.34;95.09;100189.88;4949726;28;20477;-75
2023/11/16 02:20:46;;;;;;;0.00;0.00;;;;;;;6.50;94.94;100207.28;4985595;28;20083;-74
2023/11/16 02:23:13;;;;;;;0.00;0.00;;;;;;;6.53;95.28;100210.34;4963084;28;20035;-74
2023/11/16 02:25:57;;;;;;;0.00;0.00;;;;;;;6.27;95.23;100162.91;4954361;28;20070;-75
2023/11/16 02:28:23;;;;;;;0.10;0.10;;;;;;;6.31;95.05;100164.06;4981178;28;20037;-75
2023/11/16 02:30:50;;;;;;;0.00;0.00;;;;;;;6.43;95.20;100189.25;4971527;28;20044;-75
2023/11/16 02:33:16;;;;;;;0.00;0.00;;;;;;;6.40;94.91;100184.31;4955225;28;20107;-74
2023/11/16 02:35:42;;;;;;;0.00;0.00;;;;;;;6.39;94.35;100182.66;4981230;28;20035;-75
2023/11/16 02:38:08;;;;;;;0.00;0.00;;;;;;;6.32;94.98;100171.13;4986451;28;20100;-74
2023/11/16 02:40:39;;;;;;;0.00;0.00;;;;;;;6.26;94.71;100156.66;4984132;28;20034;-75
2023/11/16 02:43:05;;;;;;;0.00;0.00;;;;;;;6.33;95.01;100172.78;4939143;28;20035;-74
2023/11/16 02:45:32;;;;;;;0.00;0.00;;;;;;;6.45;94.54;100176.28;4970418;28;20061;-74
2023/11/16 02:47:58;;;;;;;0.00;0.00;;;;;;;6.46;94.83;100172.47;4938379;28;20508;-75
2023/11/16 02:50:27;;;;;;;0.00;0.00;;;;;;;6.31;94.48;100153.19;4967500;28;20069;-75
2023/11/16 02:52:53;;;;;;;0.10;0.10;;;;;;;6.16;94.31;100136.63;4982437;28;20033;-74
2023/11/16 02:55:25;;;;;;;0.00;0.00;;;;;;;6.17;95.34;100130.13;4976284;28;20029;-75
2023/11/16 02:57:55;;;;;;;0.00;0.00;;;;;;;6.20;95.42;100116.88;4965473;28;20050;-75
2023/11/16 03:00:21;;;;;;;0.00;0.00;;;;;;;6.23;95.32;100107.41;4967870;28;20026;-74
2023/11/16 03:02:49;;;;;;;0.00;0.00;;;;;;;6.21;95.68;100094.09;4980700;28;20026;-75
2023/11/16 03:05:15;;;;;;;0.00;0.00;;;;;;;6.22;95.19;100094.91;4958816;28;20034;-74
2023/11/16 03:07:42;;;;;;;0.00;0.00;;;;;;;6.33;94.83;100107.59;4936156;28;20049;-75
2023/11/16 03:10:08;;;;;;;0.00;0.00;;;;;;;6.25;95.46;100083.53;4966256;28;20485;-74
2023/11/16 03:12:38;;;;;;;0.00;0.00;;;;;;;6.39;94.88;100089.50;4981189;28;20038;-75
2023/11/16 03:15:06;;;;;;;0.00;0.00;;;;;;;6.29;95.08;100080.13;4971047;28;20124;-75
2023/11/16 03:17:38;;;;;;;0.10;0.10;;;;;;;6.35;95.18;100096.47;4953158;28;20027;-74
2023/11/16 03:20:04;;;;;;;0.00;0.00;;;;;;;6.33;95.13;100096.72;4948185;28;20137;-75
2023/11/16 03:22:32;;;;;;;0.00;0.00;;;;;;;6.33;95.21;100088.59;4955684;28;20030;-75
2023/11/16 03:25:00;;;;;;;0.00;0.00;;;;;;;6.39;95.12;100084.88;4965086;28;20023;-74
2023/11/16 03:27:25;;;;;;;0.00;0.00;;;;;;;6.40;95.45;100075.66;4953439;28;20027;-75
2023/11/16 03:29:51;;;;;;;0.00;0.00;;;;;;;6.41;95.13;100071.03;4986637;28;20072;-76
2023/11/16 03:32:18;;;;;;;0.00;0.00;;;;;;;6.38;94.71;100058.81;4971244;28;20037;-74
2023/11/16 03:34:44;;;;;;;0.00;0.00;;;;;;;6.34;95.27;100035.94;4950616;28;20089;-75
2023/11/16 03:37:10;;;;;;;0.00;0.00;;;;;;;6.32;94.59;100024.47;4957383;28;20027;-75
2023/11/16 03:39:36;;;;;;;0.00;0.00;;;;;;;6.37;94.84;100037.31;4984091;28;20018;-75
2023/11/16 03:42:02;;;;;;;0.00;0.00;;;;;;;6.36;94.90;100039.19;4981043;28;20066;-74
2023/11/16 03:44:28;;;;;;;0.03;0.03;;;;;;;6.35;94.85;100040.28;4991488;28;20370;-75
2023/11/16 03:46:54;;;;;;;0.10;0.10;;;;;;;6.14;94.53;99990.25;4971112;28;20051;-74
2023/11/16 03:49:20;;;;;;;0.00;0.00;;;;;;;6.31;94.98;100009.25;4966434;28;20027;-74
2023/11/16 03:51:45;;;;;;;0.00;0.00;;;;;;;6.30;95.29;99988.59;4975276;28;20034;-74
2023/11/16 03:54:11;;;;;;;0.00;0.00;;;;;;;6.42;94.92;99997.47;4951235;28;20027;-75
2023/11/16 03:56:36;;;;;;;0.00;0.00;;;;;;;6.38;94.85;99990.06;4961955;28;20077;-75
2023/11/16 03:59:02;;;;;;;0.10;0.10;;;;;;;6.37;94.98;99991.16;4938414;28;20468;-75
2023/11/16 04:01:33;;;;;;;0.00;0.00;;;;;;;6.38;94.95;99990.91;4981283;28;20488;-77
2023/11/16 04:03:58;;;;;;;0.00;0.00;;;;;;;6.34;94.37;99978.88;4979577;28;20069;-74
2023/11/16 04:06:24;;;;;;;0.00;0.00;;;;;;;6.34;94.94;99978.88;4926864;28;20039;-75
2023/11/16 04:08:51;;;;;;;0.00;0.00;;;;;;;6.37;94.87;99978.38;4975906;28;20042;-76
2023/11/16 04:11:17;;;;;;;0.00;0.00;;;;;;;6.23;94.95;99955.38;4940530;28;20802;-75
2023/11/16 04:13:45;;;;;;;0.00;0.00;;;;;;;6.24;95.27;99951.59;4949560;28;20019;-76
2023/11/16 04:16:23;;;;;;;0.00;0.00;;;;;;;6.28;95.25;99964.41;4974617;28;20093;-76
2023/11/16 04:18:55;;;;;;;0.00;0.00;;;;;;;6.09;95.07;99944.84;4980808;28;20034;-76
2023/11/16 04:21:25;;;;;;;0.00;0.00;;;;;;;5.93;95.41;99919.31;4974327;28;20057;-74
2023/11/16 04:23:52;;;;;;;0.00;0.00;;;;;;;6.01;95.21;99926.25;4981379;28;20055;-76
2023/11/16 04:26:21;;;;;;;0.00;0.00;;;;;;;5.97;95.52;99914.25;4975540;28;20023;-73
2023/11/16 04:28:47;;;;;;;0.00;0.00;;;;;;;6.18;95.55;99947.16;4961381;28;20019;-74
2023/11/16 04:31:13;;;;;;;0.00;0.00;;;;;;;6.17;95.75;99940.06;4961562;28;20026;-74
2023/11/16 04:33:40;;;;;;;0.00;0.00;;;;;;;6.15;95.21;99928.63;4934814;28;20794;-73
2023/11/16 04:36:07;;;;;;;0.00;0.00;;;;;;;6.13;95.47;99917.19;4957191;28;20034;-76
2023/11/16 04:38:33;;;;;;;0.00;0.00;;;;;;;6.10;95.29;99908.50;4982640;28;20057;-75
2023/11/16 04:40:58;;;;;;;0.00;0.00;;;;;;;6.21;95.41;99914.88;4965357;28;20780;-76
2023/11/16 04:43:24;;;;;;;0.10;0.10;;;;;;;6.25;95.71;99920.63;4953145;28;20034;-74
2023/11/16 04:45:49;;;;;;;0.00;0.00;;;;;;;6.22;95.23;99902.97;4975282;28;20045;-75
2023/11/16 04:48:17;;;;;;;0.00;0.00;;;;;;;6.23;95.34;99895.63;4951349;28;20057;-75
2023/11/16 04:50:43;;;;;;;0.00;0.00;;;;;;;6.20;95.81;99879.84;4915867;28;20085;-75
2023/11/16 04:53:08;;;;;;;0.00;0.00;;;;;;;6.24;95.79;99891.84;4912873;29;20039;-74
2023/11/16 04:55:35;;;;;;;0.00;0.00;;;;;;;6.25;95.73;99879.91;4950525;28;20031;-75
2023/11/16 04:58:00;;;;;;;0.00;0.00;;;;;;;6.27;95.89;99875.06;4949416;28;20100;-75
2023/11/16 05:00:26;;;;;;;0.00;0.00;;;;;;;6.24;95.51;99872.84;4945624;28;20043;-75
2023/11/16 05:02:51;;;;;;;0.00;0.00;;;;;;;6.22;95.58;99869.53;4935675;28;20070;-74
2023/11/16 05:05:16;;;;;;;0.00;0.00;;;;;;;6.13;95.72;99844.72;4955354;28;20035;-75
2023/11/16 05:07:43;;;;;;;0.00;0.00;;;;;;;6.17;95.29;99842.34;4940666;28;20039;-76
2023/11/16 05:10:10;;;;;;;0.00;0.00;;;;;;;6.29;95.78;99860.16;4959183;28;20545;-75
2023/11/16 05:12:36;;;;;;;0.00;0.00;;;;;;;6.34;95.33;99859.41;4961536;28;20545;-75
2023/11/16 05:15:03;;;;;;;0.00;0.00;;;;;;;6.46;95.17;99851.94;4967732;28;20034;-74
2023/11/16 05:17:29;;;;;;;0.00;0.00;;;;;;;6.45;95.32;99844.88;4962356;28;20027;-74
2023/11/16 05:19:55;;;;;;;0.00;0.00;;;;;;;6.53;95.37;99850.94;4930458;29;20370;-74
2023/11/16 05:22:21;;;;;;;0.00;0.00;;;;;;;6.43;95.13;99838.88;4952308;28;20545;-74
2023/11/16 05:24:47;;;;;;;0.00;0.00;;;;;;;6.55;94.75;99848.78;4915598;28;20058;-74
2023/11/16 05:27:12;;;;;;;0.00;0.00;;;;;;;6.58;94.81;99837.41;4954473;28;20031;-74
2023/11/16 05:29:38;;;;;;;0.10;0.10;;;;;;;6.63;94.63;99829.34;4954906;28;20493;-74
2023/11/16 05:32:04;;;;;;;0.00;0.00;;;;;;;6.58;94.22;99810.25;4952785;28;20038;-74
2023/11/16 05:34:29;;;;;;;0.00;0.00;;;;;;;6.76;93.84;99831.66;4939407;28;20034;-73
2023/11/16 05:36:55;;;;;;;0.00;0.00;;;;;;;6.79;93.83;99817.53;4962174;28;20034;-74
2023/11/16 05:39:21;;;;;;;0.00;0.00;;;;;;;6.82;93.78;99811.59;4951130;28;20031;-75
2023/11/16 05:41:46;;;;;;;0.00;0.00;;;;;;;6.72;93.66;99778.88;4935279;28;20090;-74
2023/11/16 05:44:17;;;;;;;0.00;0.00;;;;;;;6.78;93.92;99788.72;4953373;28;20042;-74
2023/11/16 05:46:44;;;;;;;0.00;0.00;;;;;;;6.80;93.73;99786.59;4951025;28;20094;-74
2023/11/16 05:49:09;;;;;;;0.00;0.00;;;;;;;6.79;94.17;99790.38;4967193;28;20174;-73
2023/11/16 05:51:36;;;;;;;0.00;0.00;;;;;;;6.63;94.00;99753.25;4983882;28;20731;-74
2023/11/16 05:54:05;;;;;;;0.05;0.05;;;;;;;6.77;94.42;99770.75;4981059;28;20026;-74
2023/11/16 05:56:31;;;;;;;0.00;0.00;;;;;;;6.76;93.79;99758.28;4991362;28;20061;-74
2023/11/16 05:58:56;;;;;;;0.00;0.00;;;;;;;6.69;94.18;99741.34;4962957;28;20034;-75
2023/11/16 06:01:22;;;;;;;0.00;0.00;;;;;;;6.77;94.29;99748.22;4988423;28;20031;-73
2023/11/16 06:03:47;;;;;;;0.00;0.00;;;;;;;6.61;94.28;99717.34;4940198;28;20061;-74
2023/11/16 06:06:13;;;;;;;0.05;0.05;;;;;;;6.86;93.79;99768.41;4975562;28;20082;-75
2023/11/16 06:08:40;;;;;;;0.00;0.00;;;;;;;6.82;94.13;99759.16;4978539;28;20080;-75
2023/11/16 06:11:08;;;;;;;0.00;0.00;;;;;;;6.83;94.28;99755.34;4977171;28;20031;-73
2023/11/16 06:13:35;;;;;;;0.00;0.00;;;;;;;6.89;93.71;99750.78;4958835;28;20475;-75
2023/11/16 06:16:00;;;;;;;0.00;0.00;;;;;;;6.97;93.69;99747.59;4967429;28;20069;-75
2023/11/16 06:18:26;;;;;;;0.00;0.00;;;;;;;7.01;93.97;99759.59;4968909;28;20115;-76
2023/11/16 06:20:52;;;;;;;0.00;0.00;;;;;;;6.89;93.82;99734.47;4970634;28;20034;-75
2023/11/16 06:23:17;;;;;;;0.00;0.00;;;;;;;6.88;94.22;99736.38;4983907;28;20030;-76
2023/11/16 06:25:43;;;;;;;0.00;0.00;;;;;;;6.93;94.16;99735.59;4953408;28;20022;-75
2023/11/16 06:28:10;;;;;;;0.00;0.00;;;;;;;7.05;94.07;99747.09;4980254;28;20034;-75
2023/11/16 06:30:35;;;;;;;0.00;0.00;;;;;;;7.06;93.35;99740.59;4967046;28;20141;-77
2023/11/16 06:33:01;;;;;;;0.00;0.00;;;;;;;7.05;93.56;99729.97;4963175;28;20022;-75
2023/11/16 06:35:26;;;;;;;0.08;0.08;;;;;;;7.16;93.37;99745.28;4961905;28;20041;-73
2023/11/16 06:37:52;;;;;;;0.00;0.00;;;;;;;7.23;93.34;99739.63;4976408;28;20428;-73
2023/11/16 06:40:18;;;;;;;0.00;0.00;;;;;;;7.23;93.36;99726.03;4987241;28;20478;-74
2023/11/16 06:42:44;;;;;;;0.00;0.00;;;;;;;7.45;93.05;99753.94;4965161;28;20113;-74
2023/11/16 06:45:12;;;;;;;0.00;0.00;;;;;;;7.42;92.64;99753.66;4979761;28;20548;-74
2023/11/16 06:47:37;;;;;;;0.00;0.00;;;;;;;7.24;92.55;99728.50;4961050;28;20050;-76
2023/11/16 06:50:03;;;;;;;0.00;0.00;;;;;;;7.42;93.01;99746.31;4979476;28;20026;-76
2023/11/16 06:52:29;;;;;;;0.00;0.00;;;;;;;7.47;93.49;99759.94;4981543;28;20038;-75
2023/11/16 06:54:55;;;;;;;0.00;0.00;;;;;;;7.45;92.96;99759.38;4986574;28;20018;-73
2023/11/16 06:57:23;;;;;;;0.00;0.00;;;;;;;7.39;92.71;99755.00;4966844;28;20026;-74
2023/11/16 06:59:52;;;;;;;0.00;0.00;;;;;;;7.41;92.93;99769.13;4978803;28;20057;-75
2023/11/16 07:02:21;;;;;;;0.00;0.00;;;;;;;7.25;92.75;99753.78;4980478;28;20137;-75
2023/11/16 07:04:47;;;;;;;0.00;0.00;;;;;;;7.29;93.23;99771.25;4940402;28;20493;-74
2023/11/16 07:07:13;;;;;;;0.00;0.00;;;;;;;7.15;93.01;99768.97;4969411;28;20085;-74
2023/11/16 07:09:55;;;;;;;0.00;0.00;;;;;;;7.10;92.98;99758.03;4944295;28;20042;-73
2023/11/16 07:12:23;;;;;;;0.00;0.00;;;;;;;6.99;92.76;99723.66;4964155;28;20697;-74
2023/11/16 07:14:48;;;;;;;0.00;0.00;;;;;;;7.16;93.82;99767.84;4966486;28;20030;-75
2023/11/16 07:17:14;;;;;;;0.00;0.00;;;;;;;7.09;94.06;99734.63;4980398;28;20038;-74
2023/11/16 07:19:41;;;;;;;0.00;0.00;;;;;;;7.12;94.28;99744.97;4961548;28;20026;-76
2023/11/16 07:22:08;;;;;;;0.00;0.00;;;;;;;7.05;94.99;99719.91;4952048;28;20034;-72
2023/11/16 07:24:34;;;;;;;0.00;0.00;;;;;;;7.18;95.07;99739.59;4970585;28;20027;-73
2023/11/16 07:27:01;;;;;;;0.00;0.00;;;;;;;7.24;95.52;99733.09;4945479;28;20026;-73
2023/11/16 07:29:26;;;;;;;0.03;0.03;;;;;;;7.23;95.46;99728.75;4975826;28;20034;-75
2023/11/16 07:31:53;;;;;;;0.00;0.00;;;;;;;7.24;95.72;99714.06;4974519;28;20057;-73
2023/11/16 07:34:18;;;;;;;0.00;0.00;;;;;;;7.33;95.64;99732.38;4928742;28;20030;-74
2023/11/16 07:36:44;;;;;;;0.00;0.00;;;;;;;7.27;96.17;99708.09;4928607;28;20027;-75
2023/11/16 07:39:11;;;;;;;0.00;0.00;;;;;;;7.48;97.42;99731.66;4923058;28;20039;-74
2023/11/16 07:41:38;;;;;;;0.10;0.10;;;;;;;7.64;98.10;99724.41;4970548;28;20034;-74
2023/11/16 07:44:05;;;;;;;0.00;0.00;;;;;;;7.67;98.25;99723.06;4946368;28;20033;-75
2023/11/16 07:46:31;;;;;;;0.00;0.00;;;;;;;7.65;98.16;99708.88;4928070;28;20034;-75
2023/11/16 07:48:57;;;;;;;0.00;0.00;;;;;;;7.69;99.16;99718.16;4978693;28;20072;-74
2023/11/16 07:51:22;;;;;;;0.00;0.00;;;;;;;7.65;99.46;99696.13;4935290;28;20128;-75
2023/11/16 07:53:53;;;;;;;0.00;0.00;;;;;;;7.80;99.23;99710.88;4941737;28;21189;-76
2023/11/16 07:56:20;;;;;;;0.00;0.00;;;;;;;7.88;99.26;99712.28;4961205;28;20042;-74
2023/11/16 07:58:49;;;;;;;0.00;0.00;;;;;;;7.78;99.21;99713.88;4971538;28;20413;-74
2023/11/16 08:01:28;;;;;;;0.00;0.00;;;;;;;7.53;99.48;99702.84;4963318;28;20042;-75
2023/11/16 08:03:56;;;;;;;0.10;0.10;;;;;;;7.46;99.08;99706.63;4974809;28;20080;-74
2023/11/16 08:06:28;;;;;;;0.00;0.00;;;;;;;7.23;98.04;99701.53;4977083;28;20704;-73
2023/11/16 08:08:56;;;;;;;0.00;0.00;;;;;;;7.07;97.39;99685.16;4950017;28;20053;-74
2023/11/16 08:11:22;;;;;;;0.00;0.00;;;;;;;7.02;97.24;99684.28;4948528;28;20034;-75
2023/11/16 08:13:47;;;;;;;0.00;0.00;;;;;;;7.08;97.04;99700.38;4964774;28;20506;-74
2023/11/16 08:16:15;;;;;;;0.00;0.00;;;;;;;6.94;97.36;99677.44;4971296;28;20026;-73
2023/11/16 08:18:44;;;;;;;0.00;0.00;;;;;;;7.01;96.73;99697.06;4973934;28;20033;-74
2023/11/16 08:21:10;;;;;;;0.00;0.00;;;;;;;6.98;97.40;99700.31;4971304;28;20030;-74
2023/11/16 08:23:45;;;;;;;0.00;0.00;;;;;;;6.92;97.26;99685.84;4974783;28;20032;-74
2023/11/16 08:26:13;;;;;;;0.00;0.00;;;;;;;6.93;96.87;99689.38;4987751;28;20085;-74
2023/11/16 08:28:44;;;;;;;0.00;0.00;;;;;;;6.78;96.33;99669.16;4974527;28;20019;-74
2023/11/16 08:31:12;;;;;;;0.00;0.00;;;;;;;6.89;96.21;99685.53;4975543;28;20034;-74
2023/11/16 08:33:41;;;;;;;0.00;0.00;;;;;;;6.68;96.25;99652.75;4950430;28;20018;-74
2023/11/16 08:36:10;;;;;;;0.00;0.00;;;;;;;6.92;96.70;99701.31;4978648;28;20033;-74
2023/11/16 08:38:42;;;;;;;0.00;0.00;;;;;;;6.92;96.61;99704.03;4968269;28;20384;-74
2023/11/16 08:41:15;;;;;;;0.00;0.00;;;;;;;7.01;96.46;99710.66;4982839;28;20104;-73
2023/11/16 08:43:46;;;;;;;0.00;0.00;;;;;;;7.05;96.23;99711.75;4941638;28;20035;-75
2023/11/16 08:46:20;;;;;;;0.00;0.00;;;;;;;7.09;96.18;99712.88;4964405;28;20117;-73
2023/11/16 08:48:47;;;;;;;;;;;;;;;7.10;95.59;99709.09;4955537;28;20402;-74
2023/11/16 08:51:15;;;;;;;0.10;0.10;;;;;;;7.06;95.95;99697.09;4954885;28;19929;-74
2023/11/16 08:53:42;;;;;;;0.00;0.00;;;;;;;7.15;96.03;99717.28;4947418;28;20497;-74
2023/11/16 08:56:07;;;;;;;0.00;0.00;;;;;;;7.17;95.66;99708.88;4971060;28;20039;-74
2023/11/16 08:58:37;;;;;;;0.00;0.00;;;;;;;7.20;95.75;99696.63;4957754;28;20527;-73
2023/11/16 09:01:05;;;;;;;0.00;0.00;;;;;;;7.29;95.19;99711.41;4971563;28;20029;-74
2023/11/16 09:03:33;;;;;;;0.00;0.00;;;;;;;7.32;95.03;99705.44;4949961;28;20122;-73
2023/11/16 09:06:02;;;;;;;0.00;0.00;;;;;;;7.29;94.70;99712.22;4963374;28;20481;-72
2023/11/16 09:08:28;;;;;;;0.00;0.00;;;;;;;7.35;94.64;99721.22;4964175;28;20038;-74
2023/11/16 09:10:54;;;;;;;0.00;0.00;;;;;;;7.30;94.47;99713.84;4950845;28;20091;-72
2023/11/16 09:13:20;;;;;;;0.00;0.00;;;;;;;7.39;94.71;99718.78;4946356;28;20039;-73
2023/11/16 09:15:46;;;;;;;0.00;0.00;;;;;;;7.44;94.79;99716.94;4946381;28;20046;-74
2023/11/16 09:18:13;;;;;;;0.10;0.10;;;;;;;7.48;94.22;99720.75;4930860;28;20027;-73
2023/11/16 09:20:40;;;;;;;0.00;0.00;;;;;;;7.54;94.34;99726.25;4947718;28;20567;-73
2023/11/16 09:23:07;;;;;;;0.00;0.00;;;;;;;7.61;94.03;99729.56;4938847;28;20097;-74
2023/11/16 09:25:34;;;;;;;0.00;0.00;;;;;;;7.72;93.67;99742.13;4949921;28;20673;-73
2023/11/16 09:28:01;;;;;;;0.00;0.00;;;;;;;7.73;93.43;99743.78;4973749;28;20022;-73
2023/11/16 09:30:27;;;;;;;0.00;0.00;;;;;;;7.72;93.27;99742.13;4975001;28;20061;-73
2023/11/16 09:33:00;;;;;;;0.00;0.00;;;;;;;7.77;93.12;99744.03;4961377;28;20030;-73
2023/11/16 09:35:28;;;;;;;0.00;0.00;;;;;;;7.71;93.09;99729.63;4960225;28;20113;-73
2023/11/16 09:37:55;;;;;;;0.10;0.10;;;;;;;7.84;93.18;99750.91;4978653;28;20113;-73
2023/11/16 09:40:28;;;;;;;0.00;0.00;;;;;;;7.91;92.79;99758.81;4960900;28;20026;-73
2023/11/16 09:42:57;;;;;;;0.00;0.00;;;;;;;7.94;92.70;99762.94;4966430;28;20034;-74
2023/11/16 09:45:28;;;;;;;0.00;0.00;;;;;;;8.01;92.13;99760.78;4957324;28;20046;-73
2023/11/16 09:48:00;;;;;;;0.00;0.00;;;;;;;8.09;91.65;99768.47;4961852;28;20771;-74
2023/11/16 09:50:27;;;;;;;0.00;0.00;;;;;;;8.13;91.70;99775.03;4961793;28;20034;-74
2023/11/16 09:52:56;;;;;;;0.00;0.00;;;;;;;8.20;91.32;99775.56;4949467;28;20569;-73
2023/11/16 09:55:32;;;;;;;0.00;0.00;;;;;;;8.34;90.71;99786.00;4960764;28;20484;-74
2023/11/16 09:58:17;;;;;;;0.00;0.00;;;;;;;8.14;90.61;99733.06;4954437;28;20061;-74
2023/11/16 10:00:48;;;;;;;0.00;0.00;;;;;;;8.50;89.28;99790.44;4962782;28;20027;-74
2023/11/16 10:03:21;;;;;;;0.00;0.00;;;;;;;8.59;89.03;99787.19;4948260;28;20039;-73
2023/11/16 10:05:47;;;;;;;0.00;0.00;;;;;;;8.60;88.21;99783.38;4961659;28;20042;-75
2023/11/16 10:08:15;;;;;;;0.00;0.00;;;;;;;8.60;88.50;99784.19;4950359;28;20034;-72
2023/11/16 10:11:05;;;;;;;0.03;0.03;;;;;;;8.70;87.54;99802.47;4972771;28;20038;-74
2023/11/16 10:13:34;;;;;;;0.00;0.00;;;;;;;8.61;87.16;99806.81;4947733;28;20060;-73
2023/11/16 10:16:09;;;;;;;0.00;0.00;;;;;;;8.52;87.21;99804.59;4954960;28;20031;-74
2023/11/16 10:18:35;;;;;;;0.00;0.00;;;;;;;8.36;87.40;99800.16;4982186;28;20058;-73
2023/11/16 10:21:03;;;;;;;0.00;0.00;;;;;;;8.39;86.98;99821.41;4971542;28;20018;-74
2023/11/16 10:23:29;;;;;;;0.00;0.00;;;;;;;8.34;87.16;99819.50;4939685;28;20033;-73
2023/11/16 10:25:55;;;;;;;0.00;0.00;;;;;;;8.26;86.94;99824.63;4982196;28;20033;-73
2023/11/16 10:28:22;;;;;;;0.00;0.00;;;;;;;8.16;87.02;99820.78;4975203;28;20027;-74
2023/11/16 10:30:58;;;;;;;0.00;0.00;;;;;;;8.10;87.37;99835.44;4975589;28;20026;-75
2023/11/16 10:33:25;;;;;;;0.00;0.00;;;;;;;8.06;87.35;99839.78;4964666;28;20046;-74
2023/11/16 10:35:56;;;;;;;0.00;0.00;;;;;;;7.99;87.48;99839.19;4971130;28;20034;-73
2023/11/16 10:38:25;;;;;;;0.00;0.00;;;;;;;7.98;87.39;99856.63;4966028;28;20419;-74
2023/11/16 10:40:52;;;;;;;0.00;0.00;;;;;;;7.97;87.70;99863.13;4954771;28;20053;-74
2023/11/16 10:43:25;;;;;;;0.00;0.00;;;;;;;7.97;88.43;99868.56;4942612;28;20032;-74
2023/11/16 10:45:55;;;;;;;0.00;0.00;;;;;;;7.91;88.05;99861.47;4968491;28;20029;-74
2023/11/16 10:48:23;;;;;;;0.00;0.00;;;;;;;7.97;88.21;99865.84;4962928;28;20078;-73
2023/11/16 10:50:49;;;;;;;0.00;0.00;;;;;;;8.01;88.49;99877.88;4959280;28;20125;-75
2023/11/16 10:53:22;;;;;;;0.00;0.00;;;;;;;7.96;88.33;99880.56;4972982;28;20362;-74
2023/11/16 10:55:49;;;;;;;0.00;0.00;;;;;;;7.90;88.22;99878.88;4961719;28;20653;-74
2023/11/16 10:58:20;;;;;;;0.00;0.00;;;;;;;7.91;88.50;99900.38;4949622;28;20034;-75
2023/11/16 11:00:51;;;;;;;0.10;0.10;;;;;;;7.84;88.54;99892.47;4946515;28;20389;-73
2023/11/16 11:03:18;;;;;;;0.00;0.00;;;;;;;7.82;88.51;99894.59;4966158;28;20626;-73
2023/11/16 11:05:51;;;;;;;0.00;0.00;;;;;;;7.75;88.39;99894.00;4975846;28;20026;-74
2023/11/16 11:08:19;;;;;;;0.00;0.00;;;;;;;7.78;88.63;99893.50;4975338;28;20035;-74
2023/11/16 11:10:52;;;;;;;0.00;0.00;;;;;;;7.82;88.97;99905.50;4945628;28;20057;-74
2023/11/16 11:13:28;;;;;;;0.03;0.03;;;;;;;7.85;88.71;99894.09;4959425;28;20022;-74
2023/11/16 11:16:02;;;;;;;0.00;0.00;;;;;;;7.89;88.75;99896.31;4981303;28;20434;-74
2023/11/16 11:18:28;;;;;;;0.00;0.00;;;;;;;7.94;88.88;99897.13;4962344;28;20030;-75
2023/11/16 11:21:04;;;;;;;0.00;0.00;;;;;;;7.99;89.09;99904.56;4931736;28;20030;-75
2023/11/16 11:23:30;;;;;;;0.00;0.00;;;;;;;7.97;88.93;99912.16;4965744;28;20031;-74
2023/11/16 11:26:11;;;;;;;0.00;0.00;;;;;;;7.96;88.95;99907.81;4976992;28;21274;-73
2023/11/16 11:28:40;;;;;;;0.00;0.00;;;;;;;8.18;88.94;99941.16;4979596;28;20037;-73
2023/11/16 11:31:10;;;;;;;0.00;0.00;;;;;;;8.16;89.47;99937.91;4954060;28;20037;-73
2023/11/16 11:33:43;;;;;;;0.00;0.00;;;;;;;8.27;89.05;99943.41;4956442;28;20022;-72
2023/11/16 11:36:11;;;;;;;0.00;0.00;;;;;;;8.31;89.04;99939.06;4975825;28;20050;-74
2023/11/16 11:38:42;;;;;;;0.00;0.00;;;;;;;8.38;88.83;99945.09;4970777;28;20050;-73
2023/11/16 11:41:08;;;;;;;0.00;0.00;;;;;;;8.47;88.63;99940.00;4975863;28;20473;-73